sensor_id;sensor_type;location;lat;lon;timestamp;P1;durP1;ratioP1;P2;durP2;ratioP2
69527;SDS011;57136;51.986;4.468;2022-10-22T00:01:30;6.93;;;2.88;;
69527;SDS011;57136;51.986;4.468;2022-10-22T00:03:56;6.43;;;2.95;;
69527;SDS011;57136;51.986;4.468;2022-10-22T00:06:21;7.32;;;3.63;;
69527;SDS011;57136;51.986;4.468;2022-10-22T00:08:47;7.88;;;3.22;;
69527;SDS011;57136;51.986;4.468;2022-10-22T00:11:13;8.07;;;3.05;;
69527;SDS011;57136;51.986;4.468;2022-10-22T00:13:40;10.23;;;3.55;;
69527;SDS011;57136;51.986;4.468;2022-10-22T00:16:06;5.90;;;3.33;;
69527;SDS011;57136;51.986;4.468;2022-10-22T00:18:31;8.25;;;3.20;;
69527;SDS011;57136;51.986;4.468;2022-10-22T00:20:57;10.18;;;3.42;;
69527;SDS011;57136;51.986;4.468;2022-10-22T00:23:22;8.07;;;3.25;;
69527;SDS011;57136;51.986;4.468;2022-10-22T00:25:48;7.07;;;3.13;;
69527;SDS011;57136;51.986;4.468;2022-10-22T00:28:14;13.02;;;4.05;;
69527;SDS011;57136;51.986;4.468;2022-10-22T00:30:39;8.05;;;3.22;;
69527;SDS011;57136;51.986;4.468;2022-10-22T00:33:05;7.57;;;2.85;;
69527;SDS011;57136;51.986;4.468;2022-10-22T00:35:31;7.78;;;2.83;;
69527;SDS011;57136;51.986;4.468;2022-10-22T00:37:56;8.32;;;3.10;;
69527;SDS011;57136;51.986;4.468;2022-10-22T00:40:22;9.80;;;2.83;;
69527;SDS011;57136;51.986;4.468;2022-10-22T00:42:47;8.05;;;3.65;;
69527;SDS011;57136;51.986;4.468;2022-10-22T00:45:17;6.95;;;3.15;;
69527;SDS011;57136;51.986;4.468;2022-10-22T00:50:55;6.15;;;2.90;;
69527;SDS011;57136;51.986;4.468;2022-10-22T00:53:37;7.72;;;3.13;;
69527;SDS011;57136;51.986;4.468;2022-10-22T00:56:05;5.53;;;2.65;;
69527;SDS011;57136;51.986;4.468;2022-10-22T00:58:34;7.93;;;3.28;;
69527;SDS011;57136;51.986;4.468;2022-10-22T01:01:03;9.23;;;2.92;;
69527;SDS011;57136;51.986;4.468;2022-10-22T01:03:30;10.82;;;3.05;;
69527;SDS011;57136;51.986;4.468;2022-10-22T01:05:57;9.07;;;2.75;;
69527;SDS011;57136;51.986;4.468;2022-10-22T01:16:08;13.35;;;2.75;;
69527;SDS011;57136;51.986;4.468;2022-10-22T01:21:25;8.18;;;2.70;;
69527;SDS011;57136;51.986;4.468;2022-10-22T01:29:24;7.03;;;2.65;;
69527;SDS011;57136;51.986;4.468;2022-10-22T01:32:25;7.13;;;2.60;;
69527;SDS011;57136;51.986;4.468;2022-10-22T01:34:53;13.70;;;3.20;;
69527;SDS011;57136;51.986;4.468;2022-10-22T01:37:27;7.55;;;2.33;;
69527;SDS011;57136;51.986;4.468;2022-10-22T01:39:56;8.02;;;2.60;;
69527;SDS011;57136;51.986;4.468;2022-10-22T01:42:24;9.40;;;2.20;;
69527;SDS011;57136;51.986;4.468;2022-10-22T01:44:50;5.88;;;2.20;;
69527;SDS011;57136;51.986;4.468;2022-10-22T01:50:26;7.00;;;2.20;;
69527;SDS011;57136;51.986;4.468;2022-10-22T02:03:54;13.50;;;2.63;;
69527;SDS011;57136;51.986;4.468;2022-10-22T02:06:24;6.82;;;2.45;;
69527;SDS011;57136;51.986;4.468;2022-10-22T02:08:53;9.90;;;2.30;;
69527;SDS011;57136;51.986;4.468;2022-10-22T02:11:20;6.97;;;2.83;;
69527;SDS011;57136;51.986;4.468;2022-10-22T02:13:46;6.28;;;2.60;;
69527;SDS011;57136;51.986;4.468;2022-10-22T02:16:17;10.15;;;2.33;;
69527;SDS011;57136;51.986;4.468;2022-10-22T02:18:47;4.95;;;2.47;;
69527;SDS011;57136;51.986;4.468;2022-10-22T02:21:17;4.88;;;2.72;;
69527;SDS011;57136;51.986;4.468;2022-10-22T02:23:43;11.32;;;3.22;;
69527;SDS011;57136;51.986;4.468;2022-10-22T02:26:10;10.07;;;3.22;;
69527;SDS011;57136;51.986;4.468;2022-10-22T02:29:05;4.78;;;2.58;;
69527;SDS011;57136;51.986;4.468;2022-10-22T02:31:38;6.68;;;2.50;;
69527;SDS011;57136;51.986;4.468;2022-10-22T02:34:08;8.40;;;2.58;;
69527;SDS011;57136;51.986;4.468;2022-10-22T02:36:38;5.50;;;2.50;;
69527;SDS011;57136;51.986;4.468;2022-10-22T02:39:06;7.28;;;2.47;;
69527;SDS011;57136;51.986;4.468;2022-10-22T02:41:33;7.15;;;3.08;;
69527;SDS011;57136;51.986;4.468;2022-10-22T02:43:59;10.25;;;3.22;;
69527;SDS011;57136;51.986;4.468;2022-10-22T02:46:26;9.75;;;2.92;;
69527;SDS011;57136;51.986;4.468;2022-10-22T02:48:52;8.93;;;2.67;;
69527;SDS011;57136;51.986;4.468;2022-10-22T02:51:17;6.95;;;2.38;;
69527;SDS011;57136;51.986;4.468;2022-10-22T02:53:43;8.60;;;2.40;;
69527;SDS011;57136;51.986;4.468;2022-10-22T02:56:08;15.68;;;3.55;;
69527;SDS011;57136;51.986;4.468;2022-10-22T02:58:34;13.32;;;2.78;;
69527;SDS011;57136;51.986;4.468;2022-10-22T03:00:59;9.32;;;3.38;;
69527;SDS011;57136;51.986;4.468;2022-10-22T03:03:25;4.43;;;2.50;;
69527;SDS011;57136;51.986;4.468;2022-10-22T03:05:50;10.73;;;2.28;;
69527;SDS011;57136;51.986;4.468;2022-10-22T03:08:15;8.75;;;2.33;;
69527;SDS011;57136;51.986;4.468;2022-10-22T03:10:41;7.10;;;2.42;;
69527;SDS011;57136;51.986;4.468;2022-10-22T03:13:06;7.93;;;2.72;;
69527;SDS011;57136;51.986;4.468;2022-10-22T03:15:31;8.50;;;2.50;;
69527;SDS011;57136;51.986;4.468;2022-10-22T03:17:57;6.30;;;2.72;;
69527;SDS011;57136;51.986;4.468;2022-10-22T03:20:22;6.65;;;2.45;;
69527;SDS011;57136;51.986;4.468;2022-10-22T03:22:47;12.70;;;2.70;;
69527;SDS011;57136;51.986;4.468;2022-10-22T03:25:16;7.47;;;2.28;;
69527;SDS011;57136;51.986;4.468;2022-10-22T03:27:44;9.20;;;2.53;;
69527;SDS011;57136;51.986;4.468;2022-10-22T03:30:11;5.63;;;2.42;;
69527;SDS011;57136;51.986;4.468;2022-10-22T03:32:37;5.40;;;2.03;;
69527;SDS011;57136;51.986;4.468;2022-10-22T03:35:02;7.40;;;2.75;;
69527;SDS011;57136;51.986;4.468;2022-10-22T03:37:29;10.55;;;2.20;;
69527;SDS011;57136;51.986;4.468;2022-10-22T03:39:56;8.27;;;2.97;;
69527;SDS011;57136;51.986;4.468;2022-10-22T03:42:21;8.00;;;2.10;;
69527;SDS011;57136;51.986;4.468;2022-10-22T03:44:47;7.85;;;2.60;;
69527;SDS011;57136;51.986;4.468;2022-10-22T03:47:14;10.75;;;2.92;;
69527;SDS011;57136;51.986;4.468;2022-10-22T03:49:40;6.10;;;2.10;;
69527;SDS011;57136;51.986;4.468;2022-10-22T03:52:06;6.47;;;2.40;;
69527;SDS011;57136;51.986;4.468;2022-10-22T03:54:32;9.45;;;2.30;;
69527;SDS011;57136;51.986;4.468;2022-10-22T03:56:57;7.30;;;2.58;;
69527;SDS011;57136;51.986;4.468;2022-10-22T03:59:22;8.65;;;2.42;;
69527;SDS011;57136;51.986;4.468;2022-10-22T04:01:48;6.07;;;2.80;;
69527;SDS011;57136;51.986;4.468;2022-10-22T04:04:14;6.93;;;2.33;;
69527;SDS011;57136;51.986;4.468;2022-10-22T04:06:39;8.30;;;2.60;;
69527;SDS011;57136;51.986;4.468;2022-10-22T04:09:04;5.15;;;1.85;;
69527;SDS011;57136;51.986;4.468;2022-10-22T04:11:29;8.80;;;2.35;;
69527;SDS011;57136;51.986;4.468;2022-10-22T04:13:55;11.73;;;2.35;;
69527;SDS011;57136;51.986;4.468;2022-10-22T04:16:20;6.22;;;2.40;;
69527;SDS011;57136;51.986;4.468;2022-10-22T04:18:47;7.93;;;3.08;;
69527;SDS011;57136;51.986;4.468;2022-10-22T04:21:15;8.93;;;2.95;;
69527;SDS011;57136;51.986;4.468;2022-10-22T04:23:46;6.65;;;2.30;;
69527;SDS011;57136;51.986;4.468;2022-10-22T04:26:14;9.07;;;2.53;;
69527;SDS011;57136;51.986;4.468;2022-10-22T04:28:40;6.38;;;2.25;;
69527;SDS011;57136;51.986;4.468;2022-10-22T04:31:07;7.60;;;2.20;;
69527;SDS011;57136;51.986;4.468;2022-10-22T04:33:34;9.93;;;2.50;;
69527;SDS011;57136;51.986;4.468;2022-10-22T04:35:59;9.68;;;2.42;;
69527;SDS011;57136;51.986;4.468;2022-10-22T04:38:24;8.10;;;2.38;;
69527;SDS011;57136;51.986;4.468;2022-10-22T04:40:49;12.02;;;2.67;;
69527;SDS011;57136;51.986;4.468;2022-10-22T04:43:15;11.02;;;2.50;;
69527;SDS011;57136;51.986;4.468;2022-10-22T04:45:40;9.15;;;2.17;;
69527;SDS011;57136;51.986;4.468;2022-10-22T04:48:05;6.85;;;2.55;;
69527;SDS011;57136;51.986;4.468;2022-10-22T04:50:31;6.85;;;2.42;;
69527;SDS011;57136;51.986;4.468;2022-10-22T04:52:56;7.95;;;2.75;;
69527;SDS011;57136;51.986;4.468;2022-10-22T04:55:21;8.73;;;2.80;;
69527;SDS011;57136;51.986;4.468;2022-10-22T04:57:47;8.00;;;2.30;;
69527;SDS011;57136;51.986;4.468;2022-10-22T05:00:12;7.10;;;2.17;;
69527;SDS011;57136;51.986;4.468;2022-10-22T05:02:38;6.88;;;2.42;;
69527;SDS011;57136;51.986;4.468;2022-10-22T05:05:03;12.15;;;3.00;;
69527;SDS011;57136;51.986;4.468;2022-10-22T05:07:29;10.52;;;3.05;;
69527;SDS011;57136;51.986;4.468;2022-10-22T05:09:54;10.52;;;2.72;;
69527;SDS011;57136;51.986;4.468;2022-10-22T05:12:19;6.10;;;2.58;;
69527;SDS011;57136;51.986;4.468;2022-10-22T05:14:45;9.68;;;2.35;;
69527;SDS011;57136;51.986;4.468;2022-10-22T05:17:10;7.07;;;2.20;;
69527;SDS011;57136;51.986;4.468;2022-10-22T05:19:35;7.50;;;2.35;;
69527;SDS011;57136;51.986;4.468;2022-10-22T05:22:01;10.55;;;3.20;;
69527;SDS011;57136;51.986;4.468;2022-10-22T05:24:28;7.88;;;2.75;;
69527;SDS011;57136;51.986;4.468;2022-10-22T05:26:55;6.90;;;2.25;;
69527;SDS011;57136;51.986;4.468;2022-10-22T05:29:22;8.52;;;2.50;;
69527;SDS011;57136;51.986;4.468;2022-10-22T05:31:47;10.93;;;2.58;;
69527;SDS011;57136;51.986;4.468;2022-10-22T05:34:13;8.00;;;2.22;;
69527;SDS011;57136;51.986;4.468;2022-10-22T05:36:39;5.95;;;2.20;;
69527;SDS011;57136;51.986;4.468;2022-10-22T05:39:04;11.55;;;3.40;;
69527;SDS011;57136;51.986;4.468;2022-10-22T05:41:31;9.05;;;2.30;;
69527;SDS011;57136;51.986;4.468;2022-10-22T05:43:58;11.52;;;2.67;;
69527;SDS011;57136;51.986;4.468;2022-10-22T05:46:25;7.30;;;1.95;;
69527;SDS011;57136;51.986;4.468;2022-10-22T05:48:55;10.77;;;2.10;;
69527;SDS011;57136;51.986;4.468;2022-10-22T05:51:23;9.27;;;2.47;;
69527;SDS011;57136;51.986;4.468;2022-10-22T05:53:51;11.80;;;2.75;;
69527;SDS011;57136;51.986;4.468;2022-10-22T05:56:17;9.13;;;2.03;;
69527;SDS011;57136;51.986;4.468;2022-10-22T05:58:43;5.60;;;2.10;;
69527;SDS011;57136;51.986;4.468;2022-10-22T06:01:11;10.68;;;2.03;;
69527;SDS011;57136;51.986;4.468;2022-10-22T06:03:41;5.38;;;2.08;;
69527;SDS011;57136;51.986;4.468;2022-10-22T06:06:20;13.05;;;2.55;;
69527;SDS011;57136;51.986;4.468;2022-10-22T06:08:46;7.90;;;2.20;;
69527;SDS011;57136;51.986;4.468;2022-10-22T06:11:14;13.18;;;3.45;;
69527;SDS011;57136;51.986;4.468;2022-10-22T06:13:41;9.98;;;2.45;;
69527;SDS011;57136;51.986;4.468;2022-10-22T06:16:07;6.95;;;2.17;;
69527;SDS011;57136;51.986;4.468;2022-10-22T06:18:32;4.28;;;1.92;;
69527;SDS011;57136;51.986;4.468;2022-10-22T06:21:02;6.35;;;1.92;;
69527;SDS011;57136;51.986;4.468;2022-10-22T06:23:29;10.88;;;2.17;;
69527;SDS011;57136;51.986;4.468;2022-10-22T06:25:55;4.93;;;2.35;;
69527;SDS011;57136;51.986;4.468;2022-10-22T06:28:21;7.97;;;2.50;;
69527;SDS011;57136;51.986;4.468;2022-10-22T06:30:47;9.82;;;2.40;;
69527;SDS011;57136;51.986;4.468;2022-10-22T06:33:12;11.52;;;2.80;;
69527;SDS011;57136;51.986;4.468;2022-10-22T06:35:37;7.80;;;2.15;;
69527;SDS011;57136;51.986;4.468;2022-10-22T06:38:02;7.25;;;1.70;;
69527;SDS011;57136;51.986;4.468;2022-10-22T06:40:28;8.82;;;2.45;;
69527;SDS011;57136;51.986;4.468;2022-10-22T06:42:53;10.65;;;2.08;;
69527;SDS011;57136;51.986;4.468;2022-10-22T06:45:18;9.65;;;1.92;;
69527;SDS011;57136;51.986;4.468;2022-10-22T06:47:44;7.57;;;1.63;;
69527;SDS011;57136;51.986;4.468;2022-10-22T06:50:11;11.05;;;2.13;;
69527;SDS011;57136;51.986;4.468;2022-10-22T06:52:36;9.18;;;2.47;;
69527;SDS011;57136;51.986;4.468;2022-10-22T06:55:01;6.70;;;1.80;;
69527;SDS011;57136;51.986;4.468;2022-10-22T06:57:28;9.20;;;1.90;;
69527;SDS011;57136;51.986;4.468;2022-10-22T06:59:54;6.65;;;2.25;;
69527;SDS011;57136;51.986;4.468;2022-10-22T07:02:19;6.35;;;2.50;;
69527;SDS011;57136;51.986;4.468;2022-10-22T07:04:44;5.10;;;1.70;;
69527;SDS011;57136;51.986;4.468;2022-10-22T07:07:10;9.40;;;2.17;;
69527;SDS011;57136;51.986;4.468;2022-10-22T07:09:35;11.13;;;3.35;;
69527;SDS011;57136;51.986;4.468;2022-10-22T07:12:00;9.70;;;1.92;;
69527;SDS011;57136;51.986;4.468;2022-10-22T07:14:26;14.20;;;2.65;;
69527;SDS011;57136;51.986;4.468;2022-10-22T07:16:51;7.97;;;1.92;;
69527;SDS011;57136;51.986;4.468;2022-10-22T07:19:16;10.57;;;2.58;;
69527;SDS011;57136;51.986;4.468;2022-10-22T07:21:41;9.68;;;2.15;;
69527;SDS011;57136;51.986;4.468;2022-10-22T07:24:07;9.45;;;2.00;;
69527;SDS011;57136;51.986;4.468;2022-10-22T07:26:32;9.45;;;2.10;;
69527;SDS011;57136;51.986;4.468;2022-10-22T07:28:58;8.95;;;2.45;;
69527;SDS011;57136;51.986;4.468;2022-10-22T07:31:24;9.90;;;2.22;;
69527;SDS011;57136;51.986;4.468;2022-10-22T07:33:50;5.72;;;2.20;;
69527;SDS011;57136;51.986;4.468;2022-10-22T07:36:15;4.45;;;2.00;;
69527;SDS011;57136;51.986;4.468;2022-10-22T07:38:42;5.97;;;2.10;;
69527;SDS011;57136;51.986;4.468;2022-10-22T07:41:11;8.32;;;1.95;;
69527;SDS011;57136;51.986;4.468;2022-10-22T07:43:37;9.55;;;2.65;;
69527;SDS011;57136;51.986;4.468;2022-10-22T07:46:03;9.98;;;2.50;;
69527;SDS011;57136;51.986;4.468;2022-10-22T07:48:28;6.65;;;2.60;;
69527;SDS011;57136;51.986;4.468;2022-10-22T07:50:54;8.73;;;2.05;;
69527;SDS011;57136;51.986;4.468;2022-10-22T07:53:20;7.72;;;2.22;;
69527;SDS011;57136;51.986;4.468;2022-10-22T07:55:49;9.68;;;2.40;;
69527;SDS011;57136;51.986;4.468;2022-10-22T07:58:18;7.50;;;2.60;;
69527;SDS011;57136;51.986;4.468;2022-10-22T08:00:45;7.30;;;1.77;;
69527;SDS011;57136;51.986;4.468;2022-10-22T08:03:10;11.75;;;2.70;;
69527;SDS011;57136;51.986;4.468;2022-10-22T08:05:36;7.25;;;1.63;;
69527;SDS011;57136;51.986;4.468;2022-10-22T08:08:03;6.90;;;1.95;;
69527;SDS011;57136;51.986;4.468;2022-10-22T08:10:29;7.50;;;1.60;;
69527;SDS011;57136;51.986;4.468;2022-10-22T08:12:55;9.50;;;2.03;;
69527;SDS011;57136;51.986;4.468;2022-10-22T08:15:21;9.02;;;2.05;;
69527;SDS011;57136;51.986;4.468;2022-10-22T08:17:47;9.88;;;2.90;;
69527;SDS011;57136;51.986;4.468;2022-10-22T08:20:12;9.25;;;2.10;;
69527;SDS011;57136;51.986;4.468;2022-10-22T08:22:38;9.13;;;2.78;;
69527;SDS011;57136;51.986;4.468;2022-10-22T08:25:04;10.88;;;1.75;;
69527;SDS011;57136;51.986;4.468;2022-10-22T08:27:29;8.52;;;1.70;;
69527;SDS011;57136;51.986;4.468;2022-10-22T08:29:55;7.10;;;1.67;;
69527;SDS011;57136;51.986;4.468;2022-10-22T08:32:21;10.90;;;2.30;;
69527;SDS011;57136;51.986;4.468;2022-10-22T08:34:46;6.03;;;1.88;;
69527;SDS011;57136;51.986;4.468;2022-10-22T08:37:12;7.75;;;2.00;;
69527;SDS011;57136;51.986;4.468;2022-10-22T08:39:38;6.15;;;1.80;;
69527;SDS011;57136;51.986;4.468;2022-10-22T08:50:45;9.68;;;2.13;;
69527;SDS011;57136;51.986;4.468;2022-10-22T08:53:18;9.98;;;2.50;;
69527;SDS011;57136;51.986;4.468;2022-10-22T08:55:46;7.65;;;2.85;;
69527;SDS011;57136;51.986;4.468;2022-10-22T09:01:00;8.25;;;2.33;;
69527;SDS011;57136;51.986;4.468;2022-10-22T09:03:36;7.38;;;2.50;;
69527;SDS011;57136;51.986;4.468;2022-10-22T09:06:18;6.20;;;1.90;;
69527;SDS011;57136;51.986;4.468;2022-10-22T09:08:47;9.38;;;2.13;;
69527;SDS011;57136;51.986;4.468;2022-10-22T09:13:59;7.50;;;2.13;;
69527;SDS011;57136;51.986;4.468;2022-10-22T09:27:13;10.20;;;2.75;;
69527;SDS011;57136;51.986;4.468;2022-10-22T09:29:49;7.32;;;2.05;;
69527;SDS011;57136;51.986;4.468;2022-10-22T09:32:15;8.07;;;2.35;;
69527;SDS011;57136;51.986;4.468;2022-10-22T09:34:47;7.00;;;2.17;;
69527;SDS011;57136;51.986;4.468;2022-10-22T09:37:18;9.98;;;2.65;;
69527;SDS011;57136;51.986;4.468;2022-10-22T09:39:51;8.50;;;2.35;;
69527;SDS011;57136;51.986;4.468;2022-10-22T09:42:19;8.43;;;1.70;;
69527;SDS011;57136;51.986;4.468;2022-10-22T09:44:55;9.05;;;2.30;;
69527;SDS011;57136;51.986;4.468;2022-10-22T09:50:16;6.90;;;1.98;;
69527;SDS011;57136;51.986;4.468;2022-10-22T09:53:13;8.63;;;2.10;;
69527;SDS011;57136;51.986;4.468;2022-10-22T09:55:41;7.72;;;2.10;;
69527;SDS011;57136;51.986;4.468;2022-10-22T09:58:09;8.55;;;2.10;;
69527;SDS011;57136;51.986;4.468;2022-10-22T10:00:40;9.52;;;1.80;;
69527;SDS011;57136;51.986;4.468;2022-10-22T10:03:11;11.50;;;2.03;;
69527;SDS011;57136;51.986;4.468;2022-10-22T10:05:41;8.00;;;1.75;;
69527;SDS011;57136;51.986;4.468;2022-10-22T10:08:11;9.02;;;1.85;;
69527;SDS011;57136;51.986;4.468;2022-10-22T10:10:40;9.95;;;1.98;;
69527;SDS011;57136;51.986;4.468;2022-10-22T10:13:21;8.68;;;1.83;;
69527;SDS011;57136;51.986;4.468;2022-10-22T10:22:04;12.13;;;2.53;;
69527;SDS011;57136;51.986;4.468;2022-10-22T10:24:57;16.48;;;2.45;;
69527;SDS011;57136;51.986;4.468;2022-10-22T10:27:37;22.85;;;2.90;;
69527;SDS011;57136;51.986;4.468;2022-10-22T10:30:17;9.93;;;2.08;;
69527;SDS011;57136;51.986;4.468;2022-10-22T10:38:44;9.90;;;2.08;;
69527;SDS011;57136;51.986;4.468;2022-10-22T10:41:22;13.48;;;2.25;;
69527;SDS011;57136;51.986;4.468;2022-10-22T10:44:13;16.10;;;3.22;;
69527;SDS011;57136;51.986;4.468;2022-10-22T10:47:02;8.80;;;1.80;;
69527;SDS011;57136;51.986;4.468;2022-10-22T10:49:44;9.63;;;1.90;;
69527;SDS011;57136;51.986;4.468;2022-10-22T11:00:37;14.52;;;2.42;;
69527;SDS011;57136;51.986;4.468;2022-10-22T11:05:59;11.95;;;2.28;;
69527;SDS011;57136;51.986;4.468;2022-10-22T11:08:29;9.82;;;1.83;;
69527;SDS011;57136;51.986;4.468;2022-10-22T11:11:25;12.15;;;2.28;;
69527;SDS011;57136;51.986;4.468;2022-10-22T11:14:02;7.93;;;1.75;;
69527;SDS011;57136;51.986;4.468;2022-10-22T11:17:03;10.07;;;2.53;;
69527;SDS011;57136;51.986;4.468;2022-10-22T11:22:12;8.30;;;2.08;;
69527;SDS011;57136;51.986;4.468;2022-10-22T11:24:45;15.48;;;2.35;;
69527;SDS011;57136;51.986;4.468;2022-10-22T11:30:39;11.60;;;2.58;;
69527;SDS011;57136;51.986;4.468;2022-10-22T11:33:03;11.20;;;3.22;;
69527;SDS011;57136;51.986;4.468;2022-10-22T11:35:33;12.70;;;2.22;;
69527;SDS011;57136;51.986;4.468;2022-10-22T11:38:02;8.90;;;2.30;;
69527;SDS011;57136;51.986;4.468;2022-10-22T11:40:37;11.25;;;2.10;;
69527;SDS011;57136;51.986;4.468;2022-10-22T11:43:09;10.32;;;1.95;;
69527;SDS011;57136;51.986;4.468;2022-10-22T11:45:49;11.80;;;2.45;;
69527;SDS011;57136;51.986;4.468;2022-10-22T11:48:26;9.75;;;2.63;;
69527;SDS011;57136;51.986;4.468;2022-10-22T11:50:56;14.82;;;2.45;;
69527;SDS011;57136;51.986;4.468;2022-10-22T11:55:50;13.18;;;2.83;;
69527;SDS011;57136;51.986;4.468;2022-10-22T12:00:52;16.33;;;2.40;;
69527;SDS011;57136;51.986;4.468;2022-10-22T12:03:42;12.38;;;2.65;;
69527;SDS011;57136;51.986;4.468;2022-10-22T12:06:20;17.00;;;3.45;;
69527;SDS011;57136;51.986;4.468;2022-10-22T12:16:47;10.55;;;2.50;;
69527;SDS011;57136;51.986;4.468;2022-10-22T12:19:22;19.52;;;2.90;;
69527;SDS011;57136;51.986;4.468;2022-10-22T12:24:19;10.02;;;3.00;;
69527;SDS011;57136;51.986;4.468;2022-10-22T12:26:46;11.70;;;2.90;;
69527;SDS011;57136;51.986;4.468;2022-10-22T12:29:14;14.90;;;2.53;;
69527;SDS011;57136;51.986;4.468;2022-10-22T12:31:42;9.63;;;2.13;;
69527;SDS011;57136;51.986;4.468;2022-10-22T12:34:12;10.60;;;2.50;;
69527;SDS011;57136;51.986;4.468;2022-10-22T12:36:40;12.25;;;2.70;;
69527;SDS011;57136;51.986;4.468;2022-10-22T12:39:16;17.40;;;2.60;;
69527;SDS011;57136;51.986;4.468;2022-10-22T12:41:46;11.70;;;2.42;;
69527;SDS011;57136;51.986;4.468;2022-10-22T12:44:13;10.88;;;2.78;;
69527;SDS011;57136;51.986;4.468;2022-10-22T12:46:40;10.55;;;2.50;;
69527;SDS011;57136;51.986;4.468;2022-10-22T12:49:10;8.10;;;2.10;;
69527;SDS011;57136;51.986;4.468;2022-10-22T12:51:41;5.50;;;2.25;;
69527;SDS011;57136;51.986;4.468;2022-10-22T12:54:31;9.85;;;2.17;;
69527;SDS011;57136;51.986;4.468;2022-10-22T12:56:55;8.82;;;1.77;;
69527;SDS011;57136;51.986;4.468;2022-10-22T12:59:26;10.65;;;2.15;;
69527;SDS011;57136;51.986;4.468;2022-10-22T13:01:54;10.68;;;2.15;;
69527;SDS011;57136;51.986;4.468;2022-10-22T13:04:30;11.63;;;3.25;;
69527;SDS011;57136;51.986;4.468;2022-10-22T13:07:19;9.75;;;2.15;;
69527;SDS011;57136;51.986;4.468;2022-10-22T13:09:45;10.65;;;2.05;;
69527;SDS011;57136;51.986;4.468;2022-10-22T13:12:14;8.20;;;2.22;;
69527;SDS011;57136;51.986;4.468;2022-10-22T13:14:49;10.48;;;2.20;;
69527;SDS011;57136;51.986;4.468;2022-10-22T13:22:22;9.68;;;2.22;;
69527;SDS011;57136;51.986;4.468;2022-10-22T13:24:49;14.63;;;2.05;;
69527;SDS011;57136;51.986;4.468;2022-10-22T13:27:15;10.32;;;2.28;;
69527;SDS011;57136;51.986;4.468;2022-10-22T13:29:41;9.85;;;1.90;;
69527;SDS011;57136;51.986;4.468;2022-10-22T13:32:22;9.88;;;1.98;;
69527;SDS011;57136;51.986;4.468;2022-10-22T13:34:52;11.23;;;2.17;;
69527;SDS011;57136;51.986;4.468;2022-10-22T13:37:20;11.20;;;1.98;;
69527;SDS011;57136;51.986;4.468;2022-10-22T13:39:45;9.18;;;2.17;;
69527;SDS011;57136;51.986;4.468;2022-10-22T13:42:11;9.85;;;2.00;;
69527;SDS011;57136;51.986;4.468;2022-10-22T13:44:37;15.63;;;2.70;;
69527;SDS011;57136;51.986;4.468;2022-10-22T13:47:03;11.63;;;2.05;;
69527;SDS011;57136;51.986;4.468;2022-10-22T13:49:34;7.35;;;1.75;;
69527;SDS011;57136;51.986;4.468;2022-10-22T13:52:00;12.23;;;2.30;;
69527;SDS011;57136;51.986;4.468;2022-10-22T13:54:25;7.32;;;2.00;;
69527;SDS011;57136;51.986;4.468;2022-10-22T13:56:51;11.57;;;2.15;;
69527;SDS011;57136;51.986;4.468;2022-10-22T13:59:17;9.60;;;1.67;;
69527;SDS011;57136;51.986;4.468;2022-10-22T14:01:42;11.32;;;2.10;;
69527;SDS011;57136;51.986;4.468;2022-10-22T14:04:10;10.85;;;1.80;;
69527;SDS011;57136;51.986;4.468;2022-10-22T14:06:38;8.25;;;1.50;;
69527;SDS011;57136;51.986;4.468;2022-10-22T14:09:05;14.68;;;2.00;;
69527;SDS011;57136;51.986;4.468;2022-10-22T14:11:35;11.40;;;1.85;;
69527;SDS011;57136;51.986;4.468;2022-10-22T14:14:00;12.48;;;2.38;;
69527;SDS011;57136;51.986;4.468;2022-10-22T14:16:32;10.00;;;2.08;;
69527;SDS011;57136;51.986;4.468;2022-10-22T14:18:58;9.35;;;1.45;;
69527;SDS011;57136;51.986;4.468;2022-10-22T14:21:24;9.68;;;1.63;;
69527;SDS011;57136;51.986;4.468;2022-10-22T14:23:59;9.63;;;1.75;;
69527;SDS011;57136;51.986;4.468;2022-10-22T14:26:26;10.88;;;1.65;;
69527;SDS011;57136;51.986;4.468;2022-10-22T14:28:55;16.50;;;2.25;;
69527;SDS011;57136;51.986;4.468;2022-10-22T14:31:21;11.40;;;2.22;;
69527;SDS011;57136;51.986;4.468;2022-10-22T14:33:46;11.70;;;2.40;;
69527;SDS011;57136;51.986;4.468;2022-10-22T14:36:13;9.07;;;1.73;;
69527;SDS011;57136;51.986;4.468;2022-10-22T14:38:40;7.38;;;1.40;;
69527;SDS011;57136;51.986;4.468;2022-10-22T14:41:17;8.80;;;2.15;;
69527;SDS011;57136;51.986;4.468;2022-10-22T14:43:45;11.98;;;2.45;;
69527;SDS011;57136;51.986;4.468;2022-10-22T14:46:11;9.90;;;1.80;;
69527;SDS011;57136;51.986;4.468;2022-10-22T14:48:37;7.80;;;1.80;;
69527;SDS011;57136;51.986;4.468;2022-10-22T14:51:03;8.88;;;1.90;;
69527;SDS011;57136;51.986;4.468;2022-10-22T14:53:28;10.02;;;1.60;;
69527;SDS011;57136;51.986;4.468;2022-10-22T14:55:53;17.55;;;2.50;;
69527;SDS011;57136;51.986;4.468;2022-10-22T14:58:23;8.40;;;1.38;;
69527;SDS011;57136;51.986;4.468;2022-10-22T15:00:48;14.13;;;1.85;;
69527;SDS011;57136;51.986;4.468;2022-10-22T15:03:14;13.05;;;2.40;;
69527;SDS011;57136;51.986;4.468;2022-10-22T15:05:39;9.43;;;2.17;;
69527;SDS011;57136;51.986;4.468;2022-10-22T15:08:08;12.15;;;3.00;;
69527;SDS011;57136;51.986;4.468;2022-10-22T15:10:34;9.98;;;2.05;;
69527;SDS011;57136;51.986;4.468;2022-10-22T15:13:00;13.18;;;2.38;;
69527;SDS011;57136;51.986;4.468;2022-10-22T15:15:25;11.05;;;2.33;;
69527;SDS011;57136;51.986;4.468;2022-10-22T15:17:50;10.00;;;2.70;;
69527;SDS011;57136;51.986;4.468;2022-10-22T15:20:16;9.40;;;2.63;;
69527;SDS011;57136;51.986;4.468;2022-10-22T15:22:41;14.07;;;3.25;;
69527;SDS011;57136;51.986;4.468;2022-10-22T15:25:07;15.20;;;2.80;;
69527;SDS011;57136;51.986;4.468;2022-10-22T15:27:33;11.13;;;2.17;;
69527;SDS011;57136;51.986;4.468;2022-10-22T15:29:58;11.88;;;2.85;;
69527;SDS011;57136;51.986;4.468;2022-10-22T15:32:24;8.18;;;2.30;;
69527;SDS011;57136;51.986;4.468;2022-10-22T15:34:52;11.65;;;2.22;;
69527;SDS011;57136;51.986;4.468;2022-10-22T15:37:21;11.18;;;2.85;;
69527;SDS011;57136;51.986;4.468;2022-10-22T15:39:46;10.57;;;2.75;;
69527;SDS011;57136;51.986;4.468;2022-10-22T15:42:12;12.20;;;2.67;;
69527;SDS011;57136;51.986;4.468;2022-10-22T15:44:38;10.38;;;2.25;;
69527;SDS011;57136;51.986;4.468;2022-10-22T15:47:05;10.82;;;2.60;;
69527;SDS011;57136;51.986;4.468;2022-10-22T15:49:32;10.10;;;2.50;;
69527;SDS011;57136;51.986;4.468;2022-10-22T15:51:59;11.07;;;3.17;;
69527;SDS011;57136;51.986;4.468;2022-10-22T15:54:26;8.82;;;2.05;;
69527;SDS011;57136;51.986;4.468;2022-10-22T15:56:53;13.23;;;3.47;;
69527;SDS011;57136;51.986;4.468;2022-10-22T15:59:20;8.95;;;3.08;;
69527;SDS011;57136;51.986;4.468;2022-10-22T16:01:45;9.23;;;2.78;;
69527;SDS011;57136;51.986;4.468;2022-10-22T16:04:11;12.32;;;3.40;;
69527;SDS011;57136;51.986;4.468;2022-10-22T16:06:44;12.32;;;3.75;;
69527;SDS011;57136;51.986;4.468;2022-10-22T16:09:15;14.02;;;3.97;;
69527;SDS011;57136;51.986;4.468;2022-10-22T16:11:42;7.80;;;3.17;;
69527;SDS011;57136;51.986;4.468;2022-10-22T16:14:10;13.35;;;5.80;;
69527;SDS011;57136;51.986;4.468;2022-10-22T16:16:46;13.13;;;5.57;;
69527;SDS011;57136;51.986;4.468;2022-10-22T16:19:19;20.30;;;6.15;;
69527;SDS011;57136;51.986;4.468;2022-10-22T16:21:47;14.40;;;5.50;;
69527;SDS011;57136;51.986;4.468;2022-10-22T16:24:14;15.68;;;5.32;;
69527;SDS011;57136;51.986;4.468;2022-10-22T16:26:40;11.65;;;4.43;;
69527;SDS011;57136;51.986;4.468;2022-10-22T16:29:05;12.25;;;4.47;;
69527;SDS011;57136;51.986;4.468;2022-10-22T16:31:32;10.48;;;4.07;;
69527;SDS011;57136;51.986;4.468;2022-10-22T16:33:57;16.92;;;3.83;;
69527;SDS011;57136;51.986;4.468;2022-10-22T16:36:23;13.77;;;3.40;;
69527;SDS011;57136;51.986;4.468;2022-10-22T16:38:48;12.73;;;3.10;;
69527;SDS011;57136;51.986;4.468;2022-10-22T16:41:15;12.95;;;3.38;;